Time;durP1;ratioP1;P1;durP2;ratioP2;P2;SDS_P1;SDS_P2;PMS_P1;PMS_P2;Temp;Humidity;BMP_temperature;BMP_pressure;BME280_temperature;BME280_humidity;BME280_pressure;Samples;Min_cycle;Max_cycle;Signal;HPM_P1;HPM_P2
2022/02/25 00:01:54;;;;;;;0.90;0.80;;;;;;;;;;5043697;28;24523;-51
2022/02/25 00:04:19;;;;;;;0.70;0.70;;;;;;;;;;5043508;28;24434;-52
2022/02/25 00:06:45;;;;;;;1.10;0.70;;;;;;;;;;5042357;28;24430;-51
2022/02/25 00:09:10;;;;;;;0.82;0.60;;;;;;;;;;5042666;28;24493;-52
2022/02/25 00:11:35;;;;;;;0.60;0.60;;;;;;;;;;5042985;28;25338;-52
2022/02/25 00:14:00;;;;;;;1.20;0.80;;;;;;;;;;5040651;28;24866;-53
2022/02/25 00:16:25;;;;;;;0.93;0.60;;;;;;;;;;5042262;28;24989;-51
2022/02/25 00:18:50;;;;;;;0.70;0.70;;;;;;;;;;5043108;28;24466;-50
2022/02/25 00:21:16;;;;;;;0.90;0.70;;;;;;;;;;5043394;28;24447;-51
2022/02/25 00:23:41;;;;;;;0.60;0.60;;;;;;;;;;5042005;28;24511;-51
2022/02/25 00:26:06;;;;;;;0.90;0.90;;;;;;;;;;5043417;28;24446;-51
2022/02/25 00:28:31;;;;;;;0.90;0.90;;;;;;;;;;5043237;28;24469;-52
2022/02/25 00:30:56;;;;;;;0.90;0.90;;;;;;;;;;5042871;28;24485;-51
2022/02/25 00:33:22;;;;;;;0.80;0.80;;;;;;;;;;5043097;28;24551;-51
2022/02/25 00:35:49;;;;;;;0.80;0.80;;;;;;;;;;5043074;28;24794;-51
2022/02/25 00:38:14;;;;;;;1.48;1.38;;;;;;;;;;5040476;28;24454;-51
2022/02/25 00:40:39;;;;;;;1.00;1.00;;;;;;;;;;5037057;28;24451;-51
2022/02/25 00:43:05;;;;;;;1.30;1.20;;;;;;;;;;5039377;28;24435;-51
2022/02/25 00:45:30;;;;;;;1.30;1.10;;;;;;;;;;5041707;28;24575;-52
2022/02/25 00:47:55;;;;;;;1.30;1.20;;;;;;;;;;5042082;28;24439;-51
2022/02/25 00:50:20;;;;;;;1.85;1.65;;;;;;;;;;5040786;28;24508;-51
2022/02/25 00:52:45;;;;;;;1.52;1.42;;;;;;;;;;5041969;28;24589;-51
2022/02/25 00:55:11;;;;;;;2.07;1.50;;;;;;;;;;5041291;28;24504;-51
2022/02/25 00:57:42;;;;;;;2.00;1.80;;;;;;;;;;5041624;28;24464;-51
2022/02/25 01:00:08;;;;;;;1.98;1.77;;;;;;;;;;5041821;28;24792;-51
2022/02/25 01:02:33;;;;;;;2.00;1.80;;;;;;;;;;5041807;28;24506;-51
2022/02/25 01:05:00;;;;;;;1.80;1.70;;;;;;;;;;5041310;28;24952;-51
2022/02/25 01:07:25;;;;;;;2.05;1.90;;;;;;;;;;5041263;28;24423;-52
2022/02/25 01:09:50;;;;;;;2.30;2.10;;;;;;;;;;5041810;28;24430;-50
2022/02/25 01:12:15;;;;;;;1.80;1.70;;;;;;;;;;5041648;28;24437;-52
2022/02/25 01:14:41;;;;;;;1.90;1.80;;;;;;;;;;5041696;28;24434;-51
2022/02/25 01:17:06;;;;;;;2.28;2.08;;;;;;;;;;5041656;28;24565;-51
2022/02/25 01:19:31;;;;;;;2.30;1.90;;;;;;;;;;5041155;28;24432;-51
2022/02/25 01:21:56;;;;;;;2.00;1.90;;;;;;;;;;5041329;28;25092;-49
2022/02/25 01:24:21;;;;;;;1.97;1.87;;;;;;;;;;5040378;28;24418;-50
2022/02/25 01:26:46;;;;;;;1.80;1.70;;;;;;;;;;5041060;28;24976;-50
2022/02/25 01:29:12;;;;;;;2.00;1.90;;;;;;;;;;5039132;28;24431;-52
2022/02/25 01:31:37;;;;;;;2.80;2.00;;;;;;;;;;5040697;28;24466;-51
2022/02/25 01:34:02;;;;;;;2.10;1.90;;;;;;;;;;5040347;28;24533;-51
2022/02/25 01:36:28;;;;;;;2.57;2.00;;;;;;;;;;5028071;28;24422;-50
2022/02/25 01:38:53;;;;;;;2.20;2.00;;;;;;;;;;5038302;28;24425;-51
2022/02/25 01:41:18;;;;;;;1.88;1.77;;;;;;;;;;5042103;28;24546;-50
2022/02/25 01:43:44;;;;;;;2.30;2.10;;;;;;;;;;5041238;28;24514;-51
2022/02/25 01:46:09;;;;;;;2.40;2.20;;;;;;;;;;5041688;28;24797;-50
2022/02/25 01:48:35;;;;;;;2.85;2.60;;;;;;;;;;5040459;28;24952;-52
2022/02/25 01:51:00;;;;;;;2.43;2.23;;;;;;;;;;5040906;28;24547;-52
2022/02/25 01:53:25;;;;;;;2.50;2.30;;;;;;;;;;5040397;28;25445;-51
2022/02/25 01:55:50;;;;;;;2.65;2.45;;;;;;;;;;5040194;28;24483;-52
2022/02/25 01:58:16;;;;;;;2.70;2.50;;;;;;;;;;5038168;28;24423;-52
2022/02/25 02:00:41;;;;;;;2.80;2.60;;;;;;;;;;5038855;28;24441;-51
2022/02/25 02:03:06;;;;;;;2.20;2.10;;;;;;;;;;5039418;28;24457;-52
2022/02/25 02:05:32;;;;;;;2.00;1.90;;;;;;;;;;5039315;28;24824;-52
2022/02/25 02:07:57;;;;;;;2.30;2.20;;;;;;;;;;5039795;28;24473;-51
2022/02/25 02:10:23;;;;;;;2.10;2.00;;;;;;;;;;5041583;28;24513;-51
2022/02/25 02:12:49;;;;;;;2.83;2.30;;;;;;;;;;5040115;28;24426;-51
2022/02/25 02:15:14;;;;;;;2.00;1.90;;;;;;;;;;5038936;28;24980;-52
2022/02/25 02:17:39;;;;;;;2.17;2.00;;;;;;;;;;5039845;28;24472;-51
2022/02/25 02:20:05;;;;;;;2.20;2.10;;;;;;;;;;5038707;28;24976;-51
2022/02/25 02:22:31;;;;;;;3.00;2.50;;;;;;;;;;5039006;28;24438;-51
2022/02/25 02:24:56;;;;;;;2.10;2.00;;;;;;;;;;5039617;28;24833;-51
2022/02/25 02:27:21;;;;;;;1.90;1.80;;;;;;;;;;5038581;28;24465;-51
2022/02/25 02:29:46;;;;;;;2.35;2.15;;;;;;;;;;5039670;28;24461;-51
2022/02/25 02:32:12;;;;;;;2.45;1.90;;;;;;;;;;5038864;28;24445;-52
2022/02/25 02:34:38;;;;;;;2.17;2.03;;;;;;;;;;5039699;28;24430;-51
2022/02/25 02:37:03;;;;;;;2.10;2.00;;;;;;;;;;5040139;28;24427;-52
2022/02/25 02:39:29;;;;;;;2.40;2.20;;;;;;;;;;5035044;28;24999;-51
2022/02/25 02:41:54;;;;;;;2.00;1.90;;;;;;;;;;5036631;28;24484;-52
2022/02/25 02:44:19;;;;;;;2.50;2.10;;;;;;;;;;5039455;28;24431;-52
2022/02/25 02:46:44;;;;;;;2.10;2.00;;;;;;;;;;5038901;28;24484;-52
2022/02/25 02:49:09;;;;;;;2.00;1.80;;;;;;;;;;5038519;28;24510;-50
2022/02/25 02:51:35;;;;;;;2.40;2.20;;;;;;;;;;5040013;28;24784;-50
2022/02/25 02:54:00;;;;;;;1.92;1.80;;;;;;;;;;5038504;28;24981;-51
2022/02/25 02:56:25;;;;;;;2.00;1.90;;;;;;;;;;5038090;28;24473;-51
2022/02/25 02:58:55;;;;;;;2.27;2.00;;;;;;;;;;5038555;28;25021;-51
2022/02/25 03:01:20;;;;;;;2.20;2.10;;;;;;;;;;5039382;28;24421;-52
2022/02/25 03:03:45;;;;;;;1.90;1.80;;;;;;;;;;5037379;28;24457;-51
2022/02/25 03:06:11;;;;;;;2.33;2.10;;;;;;;;;;5039080;28;24427;-50
2022/02/25 03:08:36;;;;;;;2.30;2.20;;;;;;;;;;5039352;28;24955;-51
2022/02/25 03:11:01;;;;;;;2.28;2.17;;;;;;;;;;5038694;28;24430;-50
2022/02/25 03:13:26;;;;;;;2.60;2.40;;;;;;;;;;5038058;28;24415;-51
2022/02/25 03:15:51;;;;;;;2.22;2.10;;;;;;;;;;5038774;28;24604;-53
2022/02/25 03:18:16;;;;;;;2.23;2.13;;;;;;;;;;5038775;28;24785;-51
2022/02/25 03:20:43;;;;;;;3.20;2.10;;;;;;;;;;5039430;28;24588;-50
2022/02/25 03:23:08;;;;;;;2.50;2.30;;;;;;;;;;5038463;28;24435;-51
2022/02/25 03:25:33;;;;;;;2.55;2.35;;;;;;;;;;5039102;28;28263;-52
2022/02/25 03:27:58;;;;;;;2.33;2.20;;;;;;;;;;5039656;28;24427;-51
2022/02/25 03:30:23;;;;;;;2.40;2.20;;;;;;;;;;5039512;28;24742;-51
2022/02/25 03:32:51;;;;;;;2.90;2.63;;;;;;;;;;5040164;28;24976;-50
2022/02/25 03:35:16;;;;;;;2.97;2.70;;;;;;;;;;5036979;28;24453;-51
2022/02/25 03:37:41;;;;;;;2.58;2.38;;;;;;;;;;5039025;28;24435;-50
2022/02/25 03:40:07;;;;;;;2.80;2.60;;;;;;;;;;5038055;28;24452;-52
2022/02/25 03:42:32;;;;;;;2.95;2.75;;;;;;;;;;5038646;28;24419;-51
2022/02/25 03:44:57;;;;;;;2.80;2.60;;;;;;;;;;5038267;28;24569;-52
2022/02/25 03:47:22;;;;;;;3.53;2.90;;;;;;;;;;5038212;28;24522;-52
2022/02/25 03:49:48;;;;;;;3.45;3.15;;;;;;;;;;5038854;28;24438;-51
2022/02/25 03:52:13;;;;;;;3.10;2.90;;;;;;;;;;5037817;28;27078;-51
2022/02/25 03:54:38;;;;;;;3.43;3.13;;;;;;;;;;5039025;28;24434;-51
2022/02/25 03:57:03;;;;;;;4.27;2.97;;;;;;;;;;5039077;28;24433;-52
2022/02/25 03:59:29;;;;;;;3.13;2.92;;;;;;;;;;5038436;28;24976;-51
2022/02/25 04:01:54;;;;;;;3.80;3.50;;;;;;;;;;5040484;28;24539;-52
2022/02/25 04:04:20;;;;;;;3.58;3.30;;;;;;;;;;5038012;28;25331;-51
2022/02/25 04:06:46;;;;;;;4.00;3.30;;;;;;;;;;5037836;28;24434;-52
2022/02/25 04:09:11;;;;;;;4.00;3.67;;;;;;;;;;5038296;28;24769;-51
2022/02/25 04:11:36;;;;;;;3.80;3.50;;;;;;;;;;5038630;28;24426;-51
2022/02/25 04:14:01;;;;;;;3.80;3.50;;;;;;;;;;5038202;28;24427;-51
2022/02/25 04:16:27;;;;;;;4.95;4.20;;;;;;;;;;5038320;28;24915;-51
2022/02/25 04:18:52;;;;;;;4.03;3.45;;;;;;;;;;5038664;28;24428;-51
2022/02/25 04:21:17;;;;;;;4.34;3.94;;;;;;;;;;5038654;28;24520;-51
2022/02/25 04:23:42;;;;;;;3.80;3.50;;;;;;;;;;5038807;28;24511;-51
2022/02/25 04:26:07;;;;;;;4.10;3.80;;;;;;;;;;5039104;28;24423;-51
2022/02/25 04:28:32;;;;;;;3.65;3.35;;;;;;;;;;5042685;28;24475;-51
2022/02/25 04:30:57;;;;;;;3.90;3.60;;;;;;;;;;5043308;28;24434;-51
2022/02/25 04:33:23;;;;;;;3.22;2.92;;;;;;;;;;5041125;28;24857;-51
2022/02/25 04:35:48;;;;;;;3.85;3.55;;;;;;;;;;5040702;28;24571;-56
2022/02/25 04:38:13;;;;;;;4.17;3.80;;;;;;;;;;5042418;28;24437;-50
2022/02/25 04:40:39;;;;;;;3.92;3.63;;;;;;;;;;5040027;28;25026;-50
2022/02/25 04:43:04;;;;;;;3.77;3.10;;;;;;;;;;5037274;28;24556;-51
2022/02/25 04:45:30;;;;;;;3.90;3.60;;;;;;;;;;5040779;28;24434;-51
2022/02/25 04:47:57;;;;;;;3.50;3.20;;;;;;;;;;5040389;28;24522;-51
2022/02/25 04:50:22;;;;;;;3.10;2.90;;;;;;;;;;5039639;28;25060;-51
2022/02/25 04:52:47;;;;;;;3.50;3.20;;;;;;;;;;5042678;28;24441;-52
2022/02/25 04:55:13;;;;;;;3.40;3.10;;;;;;;;;;5039672;28;24435;-51
2022/02/25 04:57:38;;;;;;;3.10;2.80;;;;;;;;;;5034926;28;24995;-51
2022/02/25 05:00:06;;;;;;;4.57;3.13;;;;;;;;;;5042261;28;24437;-51
2022/02/25 05:02:31;;;;;;;3.47;3.25;;;;;;;;;;5041548;28;24794;-52
2022/02/25 05:04:56;;;;;;;3.40;3.10;;;;;;;;;;5041776;28;24438;-51
2022/02/25 05:07:21;;;;;;;3.30;3.10;;;;;;;;;;5040898;28;24451;-51
2022/02/25 05:09:46;;;;;;;4.20;3.30;;;;;;;;;;5040306;28;25138;-50
2022/02/25 05:12:11;;;;;;;3.60;3.30;;;;;;;;;;5040773;28;24516;-50
2022/02/25 05:22:49;;;;;;;3.70;3.40;;;;;;;;;;5038917;28;24659;-52
2022/02/25 05:25:14;;;;;;;3.33;3.03;;;;;;;;;;5041564;28;24983;-52
2022/02/25 05:27:39;;;;;;;4.00;3.60;;;;;;;;;;5041094;28;24457;-52
2022/02/25 05:30:05;;;;;;;4.00;3.60;;;;;;;;;;5040741;28;24482;-52
2022/02/25 05:32:30;;;;;;;3.50;3.20;;;;;;;;;;5035594;28;24493;-52
2022/02/25 05:34:55;;;;;;;3.70;3.30;;;;;;;;;;5037449;28;24999;-51
2022/02/25 05:37:20;;;;;;;3.90;3.60;;;;;;;;;;5037054;28;24458;-51
2022/02/25 05:39:45;;;;;;;3.70;3.40;;;;;;;;;;5036358;28;24511;-51
2022/02/25 05:42:10;;;;;;;4.10;3.70;;;;;;;;;;5038590;28;24450;-52
2022/02/25 05:44:35;;;;;;;3.70;3.40;;;;;;;;;;5037769;28;24435;-52
2022/02/25 05:47:01;;;;;;;3.70;3.40;;;;;;;;;;5033353;28;24446;-50
2022/02/25 05:49:27;;;;;;;3.60;3.30;;;;;;;;;;5037347;28;24445;-51
2022/02/25 05:51:52;;;;;;;4.20;3.80;;;;;;;;;;5035604;28;25202;-51
2022/02/25 05:54:17;;;;;;;4.13;3.73;;;;;;;;;;5037135;28;24434;-52
2022/02/25 05:56:42;;;;;;;4.70;3.60;;;;;;;;;;5037230;28;25235;-51
2022/02/25 05:59:08;;;;;;;5.10;3.70;;;;;;;;;;5038181;28;25199;-51
2022/02/25 06:01:33;;;;;;;4.00;3.70;;;;;;;;;;5037235;28;24437;-50
2022/02/25 06:03:59;;;;;;;4.60;3.78;;;;;;;;;;5036960;28;24877;-51
2022/02/25 06:06:24;;;;;;;3.50;3.20;;;;;;;;;;5035205;28;24445;-51
2022/02/25 06:08:49;;;;;;;4.03;3.63;;;;;;;;;;5034842;28;24442;-52
2022/02/25 06:11:14;;;;;;;3.20;2.90;;;;;;;;;;5034625;28;24852;-51
2022/02/25 06:13:39;;;;;;;3.40;3.10;;;;;;;;;;5034404;28;24552;-51
2022/02/25 06:16:04;;;;;;;3.30;3.00;;;;;;;;;;5034166;28;25125;-51
2022/02/25 06:18:29;;;;;;;3.70;3.00;;;;;;;;;;5034058;28;24445;-51
2022/02/25 06:20:55;;;;;;;3.80;3.30;;;;;;;;;;5034421;28;24415;-51
2022/02/25 06:23:22;;;;;;;5.20;3.10;;;;;;;;;;5035475;28;24543;-51
2022/02/25 06:25:48;;;;;;;4.03;2.80;;;;;;;;;;5033899;28;24445;-50
2022/02/25 06:28:13;;;;;;;4.00;2.90;;;;;;;;;;5033381;28;24462;-51
2022/02/25 06:30:39;;;;;;;3.50;3.00;;;;;;;;;;5035519;28;24559;-50
2022/02/25 06:33:04;;;;;;;3.00;2.80;;;;;;;;;;5033908;28;24428;-51
2022/02/25 06:35:29;;;;;;;3.85;3.20;;;;;;;;;;5035479;28;24430;-51
2022/02/25 06:37:55;;;;;;;2.90;2.70;;;;;;;;;;5035417;28;24429;-51
2022/02/25 06:40:20;;;;;;;4.00;2.50;;;;;;;;;;5035483;28;24451;-50
2022/02/25 06:42:45;;;;;;;2.80;2.50;;;;;;;;;;5036965;28;24520;-51
2022/02/25 06:45:11;;;;;;;2.90;2.60;;;;;;;;;;5035450;28;24450;-51
2022/02/25 06:47:36;;;;;;;2.80;2.50;;;;;;;;;;5037744;28;24445;-53
2022/02/25 06:50:01;;;;;;;4.10;2.67;;;;;;;;;;5037468;28;24423;-50
2022/02/25 06:52:26;;;;;;;3.33;2.60;;;;;;;;;;5037706;28;24427;-51
2022/02/25 06:54:51;;;;;;;2.60;2.40;;;;;;;;;;5035867;28;24446;-51
2022/02/25 06:57:17;;;;;;;2.85;2.47;;;;;;;;;;5037585;28;24471;-52
2022/02/25 06:59:42;;;;;;;2.50;2.20;;;;;;;;;;5036888;28;24495;-52
2022/02/25 07:02:07;;;;;;;3.10;2.00;;;;;;;;;;5038442;28;24480;-52
2022/02/25 07:04:32;;;;;;;2.95;2.40;;;;;;;;;;5038129;28;24415;-51
2022/02/25 07:06:58;;;;;;;3.80;2.20;;;;;;;;;;5037930;28;25077;-51
2022/02/25 07:09:23;;;;;;;2.73;2.53;;;;;;;;;;5037978;28;24596;-51
2022/02/25 07:11:48;;;;;;;2.30;2.10;;;;;;;;;;5036762;28;24437;-52
2022/02/25 07:14:14;;;;;;;2.30;2.10;;;;;;;;;;5038244;28;25128;-51
2022/02/25 07:16:39;;;;;;;2.33;2.10;;;;;;;;;;5037135;28;24964;-51
2022/02/25 07:19:04;;;;;;;2.20;2.00;;;;;;;;;;5038340;28;24785;-51
2022/02/25 07:21:29;;;;;;;5.20;2.90;;;;;;;;;;5037390;28;24510;-51
2022/02/25 07:23:54;;;;;;;2.87;2.20;;;;;;;;;;5039076;28;24466;-51
2022/02/25 07:26:20;;;;;;;2.50;2.20;;;;;;;;;;5038289;28;24777;-51
2022/02/25 07:28:45;;;;;;;4.90;2.53;;;;;;;;;;5037294;28;24615;-51
2022/02/25 07:31:11;;;;;;;8.57;5.13;;;;;;;;;;5037024;28;24457;-51
2022/02/25 07:33:36;;;;;;;6.87;5.07;;;;;;;;;;5038885;28;25048;-51
2022/02/25 07:36:01;;;;;;;4.80;2.55;;;;;;;;;;5037105;28;24492;-52
2022/02/25 07:38:26;;;;;;;1.80;1.70;;;;;;;;;;5038314;28;24458;-51
2022/02/25 07:40:51;;;;;;;4.10;2.00;;;;;;;;;;5038495;28;24646;-51
2022/02/25 07:43:19;;;;;;;2.40;1.90;;;;;;;;;;5037807;28;26572;-51
2022/02/25 07:45:45;;;;;;;2.05;1.85;;;;;;;;;;5036956;28;24431;-51
2022/02/25 07:48:10;;;;;;;3.17;1.70;;;;;;;;;;5037054;28;24431;-51
2022/02/25 07:50:35;;;;;;;4.35;1.90;;;;;;;;;;5038659;28;24517;-52
2022/02/25 07:53:00;;;;;;;2.63;1.50;;;;;;;;;;5037943;28;24431;-50
2022/02/25 07:55:27;;;;;;;2.50;1.70;;;;;;;;;;5036870;28;25018;-51
2022/02/25 07:57:52;;;;;;;2.95;1.80;;;;;;;;;;5037777;28;24433;-50
2022/02/25 08:00:18;;;;;;;1.73;1.60;;;;;;;;;;5038066;28;24418;-51
2022/02/25 08:02:44;;;;;;;2.90;1.60;;;;;;;;;;5041764;28;24514;-50
2022/02/25 08:05:09;;;;;;;3.20;1.90;;;;;;;;;;5041209;28;25611;-50
2022/02/25 08:07:34;;;;;;;3.90;1.73;;;;;;;;;;5041236;28;24436;-50
2022/02/25 08:09:59;;;;;;;2.80;1.50;;;;;;;;;;5042792;28;24816;-51
2022/02/25 08:12:24;;;;;;;2.60;1.70;;;;;;;;;;5041805;28;24998;-51
2022/02/25 08:14:50;;;;;;;2.53;1.87;;;;;;;;;;5042148;28;24473;-52
2022/02/25 08:17:15;;;;;;;2.60;1.80;;;;;;;;;;5041411;28;24790;-52
2022/02/25 08:19:40;;;;;;;3.97;2.10;;;;;;;;;;5041331;28;24828;-52
2022/02/25 08:22:05;;;;;;;2.60;1.90;;;;;;;;;;5041911;28;25092;-51
2022/02/25 08:24:30;;;;;;;3.28;1.90;;;;;;;;;;5041350;28;28408;-51
2022/02/25 08:26:55;;;;;;;2.80;2.00;;;;;;;;;;5041063;28;24576;-51
2022/02/25 08:29:21;;;;;;;2.20;1.80;;;;;;;;;;5041219;28;24427;-50
2022/02/25 08:31:47;;;;;;;2.92;1.90;;;;;;;;;;5038754;28;24781;-51
2022/02/25 08:34:12;;;;;;;2.00;1.80;;;;;;;;;;5038675;28;24996;-51
2022/02/25 08:36:37;;;;;;;2.13;1.87;;;;;;;;;;5040423;28;24462;-51
2022/02/25 08:39:03;;;;;;;1.88;1.77;;;;;;;;;;5040649;28;24534;-51
2022/02/25 08:41:28;;;;;;;3.77;2.00;;;;;;;;;;5041691;28;24518;-52
2022/02/25 08:43:53;;;;;;;2.80;2.13;;;;;;;;;;5039252;28;24793;-51
2022/02/25 08:46:20;;;;;;;4.30;2.50;;;;;;;;;;5041295;28;25110;-52
2022/02/25 08:48:45;;;;;;;2.85;2.10;;;;;;;;;;5039827;28;24496;-52
2022/02/25 08:51:11;;;;;;;2.60;2.40;;;;;;;;;;5041061;28;24434;-52
2022/02/25 08:53:36;;;;;;;2.92;2.10;;;;;;;;;;5040397;28;24434;-51
2022/02/25 08:56:02;;;;;;;3.30;2.35;;;;;;;;;;5039936;28;24738;-50
2022/02/25 08:58:27;;;;;;;3.30;2.35;;;;;;;;;;5041204;28;25338;-51
2022/02/25 09:00:52;;;;;;;3.53;2.40;;;;;;;;;;5040764;28;24933;-50
2022/02/25 09:03:17;;;;;;;3.65;2.30;;;;;;;;;;5040199;28;24419;-51
2022/02/25 09:05:42;;;;;;;3.10;2.10;;;;;;;;;;5039698;28;24435;-51
2022/02/25 09:08:07;;;;;;;2.50;2.30;;;;;;;;;;5041285;28;24656;-51
2022/02/25 09:10:33;;;;;;;2.93;2.50;;;;;;;;;;5040896;28;24430;-51
2022/02/25 09:12:58;;;;;;;3.47;2.38;;;;;;;;;;5038662;28;24439;-51
2022/02/25 09:15:25;;;;;;;2.97;2.30;;;;;;;;;;5040948;28;25066;-50
2022/02/25 09:17:52;;;;;;;2.85;2.22;;;;;;;;;;5039533;28;24431;-51
2022/02/25 09:20:17;;;;;;;3.08;2.00;;;;;;;;;;5040348;28;24493;-51
2022/02/25 09:22:42;;;;;;;3.17;2.20;;;;;;;;;;5040431;28;25007;-51
2022/02/25 09:25:07;;;;;;;4.65;2.10;;;;;;;;;;5040747;28;24458;-51
2022/02/25 09:27:33;;;;;;;2.65;2.08;;;;;;;;;;5039705;28;24568;-51
2022/02/25 09:29:58;;;;;;;2.43;2.20;;;;;;;;;;5040169;28;25217;-51
2022/02/25 09:32:24;;;;;;;3.67;2.10;;;;;;;;;;5041119;28;24438;-52
2022/02/25 09:34:50;;;;;;;2.90;2.08;;;;;;;;;;5039730;28;24430;-51
2022/02/25 09:37:15;;;;;;;3.03;2.20;;;;;;;;;;5040197;28;24428;-51
2022/02/25 09:39:40;;;;;;;2.15;2.05;;;;;;;;;;5040867;28;24581;-51
2022/02/25 09:42:07;;;;;;;3.42;2.80;;;;;;;;;;5039177;28;24423;-52
2022/02/25 09:44:33;;;;;;;3.85;2.20;;;;;;;;;;5040749;28;24469;-50
2022/02/25 09:46:58;;;;;;;2.20;1.97;;;;;;;;;;5038756;28;24427;-52
2022/02/25 09:49:24;;;;;;;3.20;2.30;;;;;;;;;;5039369;28;24504;-52
2022/02/25 09:51:49;;;;;;;2.30;2.00;;;;;;;;;;5039125;28;24557;-51
2022/02/25 09:54:18;;;;;;;3.63;2.10;;;;;;;;;;5040204;28;25063;-51
2022/02/25 09:56:46;;;;;;;2.50;1.80;;;;;;;;;;5038074;28;24562;-52
2022/02/25 09:59:11;;;;;;;4.90;2.30;;;;;;;;;;5040297;28;24430;-51
2022/02/25 10:01:37;;;;;;;3.20;2.00;;;;;;;;;;5038679;28;24561;-52
2022/02/25 10:04:15;;;;;;;3.63;1.90;;;;;;;;;;5039025;28;24729;-51
2022/02/25 10:06:41;;;;;;;3.37;2.03;;;;;;;;;;5040032;28;24527;-51
2022/02/25 10:09:14;;;;;;;2.30;2.07;;;;;;;;;;5039162;28;24419;-50
2022/02/25 10:12:19;;;;;;;3.03;2.00;;;;;;;;;;5038720;28;24505;-51
2022/02/25 10:14:46;;;;;;;3.60;2.97;;;;;;;;;;4939525;28;24480;-51
2022/02/25 10:17:12;;;;;;;3.88;2.55;;;;;;;;;;4938327;28;24908;-51
2022/02/25 10:19:37;;;;;;;9.25;5.00;;;;;;;;;;4986390;28;24582;-51
2022/02/25 10:22:18;;;;;;;4.30;2.40;;;;;;;;;;5040140;28;25256;-51
2022/02/25 10:24:51;;;;;;;8.60;3.90;;;;;;;;;;5039081;28;24529;-51
2022/02/25 10:27:17;;;;;;;6.97;3.83;;;;;;;;;;5038356;28;24422;-51
2022/02/25 10:29:53;;;;;;;5.90;3.40;;;;;;;;;;5038409;28;24434;-50
2022/02/25 10:32:19;;;;;;;6.65;2.78;;;;;;;;;;5035310;28;24431;-50
2022/02/25 10:34:44;;;;;;;4.15;3.22;;;;;;;;;;5036328;28;24454;-50
2022/02/25 10:37:09;;;;;;;4.28;2.70;;;;;;;;;;5037558;28;24772;-51
2022/02/25 10:39:36;;;;;;;5.97;4.03;;;;;;;;;;5038697;28;24458;-51
2022/02/25 10:42:11;;;;;;;3.03;2.65;;;;;;;;;;5038128;28;24418;-52
2022/02/25 10:44:41;;;;;;;4.70;3.08;;;;;;;;;;5038087;28;24435;-52
2022/02/25 10:47:14;;;;;;;6.28;4.13;;;;;;;;;;5037938;28;24435;-52
2022/02/25 10:49:39;;;;;;;4.20;2.63;;;;;;;;;;5038843;28;24915;-52
2022/02/25 10:52:21;;;;;;;4.67;2.90;;;;;;;;;;5023013;28;24500;-52
2022/02/25 10:54:46;;;;;;;3.10;2.50;;;;;;;;;;5032092;28;24431;-51
2022/02/25 10:57:14;;;;;;;2.45;2.17;;;;;;;;;;5037760;28;25027;-51
2022/02/25 10:59:43;;;;;;;2.60;2.40;;;;;;;;;;5037176;28;24488;-52
2022/02/25 11:02:29;;;;;;;4.30;2.45;;;;;;;;;;5036323;28;24508;-52
2022/02/25 11:05:01;;;;;;;3.33;2.90;;;;;;;;;;5036462;28;24472;-51
2022/02/25 11:07:26;;;;;;;2.20;2.00;;;;;;;;;;5037889;28;24458;-51
2022/02/25 11:09:51;;;;;;;4.20;2.90;;;;;;;;;;5037982;28;24445;-53
2022/02/25 11:12:18;;;;;;;3.13;2.60;;;;;;;;;;5038593;28;25261;-52
2022/02/25 11:14:43;;;;;;;2.90;2.10;;;;;;;;;;5037583;28;24424;-51
2022/02/25 11:17:09;;;;;;;3.10;1.70;;;;;;;;;;5037710;28;24511;-51
2022/02/25 11:19:34;;;;;;;3.60;1.70;;;;;;;;;;5038433;28;25248;-51
2022/02/25 11:21:59;;;;;;;2.67;2.00;;;;;;;;;;5038124;28;25065;-51
2022/02/25 11:24:25;;;;;;;1.90;1.53;;;;;;;;;;5024104;28;25089;-51
2022/02/25 11:26:50;;;;;;;2.43;1.60;;;;;;;;;;5037814;28;24437;-51
2022/02/25 11:29:16;;;;;;;4.88;1.90;;;;;;;;;;5036257;28;24450;-51
2022/02/25 11:31:42;;;;;;;2.97;2.10;;;;;;;;;;5039360;28;24481;-50
2022/02/25 11:34:07;;;;;;;3.80;2.05;;;;;;;;;;5038658;28;24430;-52
2022/02/25 11:36:43;;;;;;;2.00;1.80;;;;;;;;;;5041226;28;24979;-51
2022/02/25 11:39:40;;;;;;;1.60;1.50;;;;;;;;;;5041113;28;24636;-50
2022/02/25 11:42:06;;;;;;;3.05;1.80;;;;;;;;;;4978785;28;24573;-51
2022/02/25 11:44:31;;;;;;;3.28;1.70;;;;;;;;;;5041364;28;25074;-51
2022/02/25 11:46:57;;;;;;;3.70;1.73;;;;;;;;;;5042465;28;24430;-51
2022/02/25 11:49:23;;;;;;;2.58;1.60;;;;;;;;;;5041703;28;24433;-51
2022/02/25 11:51:49;;;;;;;2.80;2.20;;;;;;;;;;5041254;28;24484;-51
2022/02/25 11:56:59;;;;;;;2.78;1.80;;;;;;;;;;5041126;28;25539;-51
2022/02/25 11:59:24;;;;;;;3.45;1.40;;;;;;;;;;5040792;28;24952;-51
2022/02/25 12:02:16;;;;;;;3.00;1.70;;;;;;;;;;5043169;28;25373;-52
2022/02/25 12:04:43;;;;;;;1.80;1.50;;;;;;;;;;5030698;28;24539;-51
2022/02/25 12:07:12;;;;;;;3.20;1.70;;;;;;;;;;5040699;28;24435;-50
2022/02/25 12:09:49;;;;;;;2.20;1.50;;;;;;;;;;5040185;28;24614;-52
2022/02/25 12:12:22;;;;;;;2.15;1.50;;;;;;;;;;5041744;28;24504;-52
2022/02/25 12:15:00;;;;;;;2.53;1.55;;;;;;;;;;5041539;28;24529;-52
2022/02/25 12:17:44;;;;;;;1.60;1.30;;;;;;;;;;5041256;28;25342;-52
2022/02/25 12:20:11;;;;;;;1.90;1.55;;;;;;;;;;5041652;28;24479;-51
2022/02/25 12:22:46;;;;;;;1.95;1.40;;;;;;;;;;5040097;28;25254;-51
2022/02/25 12:25:12;;;;;;;2.00;1.75;;;;;;;;;;5041855;28;24504;-52
2022/02/25 12:27:37;;;;;;;1.37;1.20;;;;;;;;;;5042157;28;25049;-52
2022/02/25 12:30:22;;;;;;;1.60;1.40;;;;;;;;;;5041767;28;24429;-52
2022/02/25 12:32:47;;;;;;;2.30;1.40;;;;;;;;;;5038525;28;24431;-51
2022/02/25 12:35:12;;;;;;;1.50;1.40;;;;;;;;;;5038812;28;24501;-52
2022/02/25 12:37:38;;;;;;;2.55;1.58;;;;;;;;;;5040641;28;24446;-54
2022/02/25 12:40:04;;;;;;;2.67;1.27;;;;;;;;;;5040046;28;24435;-51
2022/02/25 12:42:30;;;;;;;3.13;1.40;;;;;;;;;;5040751;28;25129;-52
2022/02/25 12:44:55;;;;;;;2.77;1.40;;;;;;;;;;5040845;28;24434;-53
2022/02/25 12:47:20;;;;;;;2.47;1.30;;;;;;;;;;5040770;28;24435;-51
2022/02/25 12:49:45;;;;;;;3.08;1.60;;;;;;;;;;5040070;28;24572;-51
2022/02/25 12:52:11;;;;;;;1.73;1.40;;;;;;;;;;5039895;28;25276;-52
2022/02/25 12:54:37;;;;;;;1.90;1.23;;;;;;;;;;5042557;28;25028;-52
2022/02/25 12:57:03;;;;;;;2.70;1.40;;;;;;;;;;5040882;28;24481;-52
2022/02/25 12:59:36;;;;;;;2.30;1.90;;;;;;;;;;5040215;28;25181;-51
2022/02/25 13:02:03;;;;;;;1.70;1.40;;;;;;;;;;5039462;28;24554;-51
2022/02/25 13:04:29;;;;;;;2.78;1.40;;;;;;;;;;5041628;28;25004;-51
2022/02/25 13:06:56;;;;;;;2.72;1.50;;;;;;;;;;5040245;28;24796;-51
2022/02/25 13:09:23;;;;;;;2.17;1.20;;;;;;;;;;5039983;28;25259;-52
2022/02/25 13:11:49;;;;;;;1.75;1.40;;;;;;;;;;5040717;28;24588;-51
2022/02/25 13:14:14;;;;;;;1.77;1.40;;;;;;;;;;5040216;28;24429;-51
2022/02/25 13:16:40;;;;;;;2.30;1.40;;;;;;;;;;5040469;28;24422;-52
2022/02/25 13:19:19;;;;;;;3.00;1.50;;;;;;;;;;5041047;28;25045;-52
2022/02/25 13:21:44;;;;;;;2.10;1.30;;;;;;;;;;5041393;28;24542;-52
2022/02/25 13:24:09;;;;;;;1.73;1.40;;;;;;;;;;5041191;28;24984;-53
2022/02/25 13:26:34;;;;;;;3.10;1.70;;;;;;;;;;5041622;28;24486;-51
2022/02/25 13:29:02;;;;;;;1.42;1.30;;;;;;;;;;5041188;28;24516;-51
2022/02/25 13:31:28;;;;;;;2.42;1.30;;;;;;;;;;5040804;28;24573;-51
2022/02/25 13:33:53;;;;;;;2.40;1.50;;;;;;;;;;5041154;28;25018;-51
2022/02/25 13:36:20;;;;;;;3.60;1.33;;;;;;;;;;5041911;28;24443;-51
2022/02/25 13:38:47;;;;;;;2.90;1.40;;;;;;;;;;5041291;28;25378;-51
2022/02/25 13:41:12;;;;;;;2.30;1.20;;;;;;;;;;5040261;28;24443;-50
2022/02/25 13:43:38;;;;;;;3.03;1.80;;;;;;;;;;5041243;28;24434;-51
2022/02/25 13:46:16;;;;;;;3.55;1.30;;;;;;;;;;5039785;28;24476;-51
2022/02/25 13:54:18;;;;;;;2.50;1.40;;;;;;;;;;5040577;28;25069;-52
2022/02/25 13:56:45;;;;;;;3.45;1.70;;;;;;;;;;5041131;28;24430;-52
2022/02/25 13:59:11;;;;;;;2.40;1.57;;;;;;;;;;5038621;28;24996;-52
2022/02/25 14:01:37;;;;;;;3.20;1.30;;;;;;;;;;5040505;28;26766;-52
2022/02/25 14:04:19;;;;;;;1.88;1.13;;;;;;;;;;5040598;28;24488;-51
2022/02/25 14:06:49;;;;;;;3.25;1.27;;;;;;;;;;5041006;28;25320;-51
2022/02/25 14:09:17;;;;;;;2.30;1.48;;;;;;;;;;5041064;28;24535;-50
2022/02/25 14:11:43;;;;;;;3.33;1.70;;;;;;;;;;5040603;28;24446;-51
2022/02/25 14:14:08;;;;;;;3.55;1.45;;;;;;;;;;5039552;28;24492;-51
2022/02/25 14:16:34;;;;;;;1.93;1.50;;;;;;;;;;5040694;28;25028;-51
2022/02/25 14:19:13;;;;;;;2.70;1.30;;;;;;;;;;5039879;28;25134;-51
2022/02/25 14:21:38;;;;;;;1.50;1.30;;;;;;;;;;5039546;28;28329;-51
2022/02/25 14:24:19;;;;;;;4.10;1.50;;;;;;;;;;5039513;28;24434;-52
2022/02/25 14:26:44;;;;;;;2.28;1.52;;;;;;;;;;5040341;28;24411;-51
2022/02/25 14:29:16;;;;;;;4.60;1.90;;;;;;;;;;5038862;28;24465;-51
2022/02/25 14:31:42;;;;;;;3.50;1.60;;;;;;;;;;5039760;28;24475;-51
2022/02/25 14:34:07;;;;;;;2.17;1.60;;;;;;;;;;5036120;28;24445;-51
2022/02/25 14:36:33;;;;;;;2.10;1.40;;;;;;;;;;5037273;28;24427;-51
2022/02/25 14:38:59;;;;;;;3.55;1.58;;;;;;;;;;5039472;28;24532;-51
2022/02/25 14:41:24;;;;;;;3.40;1.50;;;;;;;;;;5039004;28;24447;-51
2022/02/25 14:43:49;;;;;;;2.50;1.43;;;;;;;;;;5039849;28;24419;-51
2022/02/25 14:46:16;;;;;;;1.60;1.50;;;;;;;;;;5038627;28;25256;-51
2022/02/25 14:48:42;;;;;;;3.30;1.73;;;;;;;;;;5037942;28;24426;-51
2022/02/25 14:51:07;;;;;;;1.73;1.30;;;;;;;;;;5039601;28;24426;-50
2022/02/25 14:53:33;;;;;;;3.90;1.30;;;;;;;;;;5038513;28;25015;-51
2022/02/25 14:55:58;;;;;;;2.42;1.42;;;;;;;;;;5039273;28;24579;-52